Terminal Aerodrome Forecast
Issued by NWS Sioux Falls, SD

Home | Current Version | Previous Version | Text Only | Print | Product List | Glossary Off
Versions: 1 2 3 4 5 6 7 8 9 10 11 12 13 14 15 16 17

000
FTUS43 KFSD 180540
TAFHON
TAF
KHON 180540Z 1806/1906 09005KT P6SM OVC100
     FM180800 15007KT P6SM SCT012
     FM181000 14005KT P6SM BKN015
     FM181400 16005KT P6SM -SN OVC008
     FM182200 17005KT P6SM OVC015=

USA.gov is the U.S. government's official web portal to all federal, state and local government web resources and services.